Time;durP1;ratioP1;P1;durP2;ratioP2;P2;SDS_P1;SDS_P2;PMS_P1;PMS_P2;Temp;Humidity;BMP_temperature;BMP_pressure;BME280_temperature;BME280_humidity;BME280_pressure;Samples;Min_cycle;Max_cycle;Signal;HPM_P1;HPM_P2
2021/06/06 00:00:44;;;;;;;3.38;2.08;;;;;;;20.87;40.81;102366.59;4167661;28;20044;-51
2021/06/06 00:02:45;;;;;;;2.22;2.03;;;;;;;20.88;40.53;102377.47;4168157;28;20377;-50
2021/06/06 00:04:45;;;;;;;2.13;1.80;;;;;;;20.95;40.41;102383.72;4162254;28;20075;-50
2021/06/06 00:06:46;;;;;;;3.28;2.55;;;;;;;20.98;40.16;102377.63;4168817;28;20040;-49
2021/06/06 00:08:47;;;;;;;4.22;2.30;;;;;;;20.91;40.60;102381.69;4168782;28;20109;-49
2021/06/06 00:10:48;;;;;;;2.38;1.65;;;;;;;20.90;40.38;102383.66;4167445;28;20033;-50
2021/06/06 00:12:49;;;;;;;3.63;2.28;;;;;;;20.91;40.47;102376.97;4170379;28;20450;-47
2021/06/06 00:14:49;;;;;;;2.28;1.98;;;;;;;20.91;40.40;102376.13;4170292;28;20029;-48
2021/06/06 00:16:53;;;;;;;3.50;2.00;;;;;;;20.99;40.32;102384.03;4168414;28;20025;-48
2021/06/06 00:18:54;;;;;;;5.38;2.00;;;;;;;20.88;40.42;102376.63;4163218;28;20458;-48
2021/06/06 00:20:54;;;;;;;3.25;2.00;;;;;;;20.83;40.63;102377.41;4163852;28;20033;-49
2021/06/06 00:22:55;;;;;;;2.53;1.75;;;;;;;20.90;40.48;102374.44;4173330;28;20040;-48
2021/06/06 00:24:56;;;;;;;3.05;1.80;;;;;;;20.81;40.61;102366.53;4163408;28;20033;-48
2021/06/06 00:26:56;;;;;;;3.70;2.40;;;;;;;20.84;40.47;102374.38;4169439;28;20079;-49
2021/06/06 00:28:57;;;;;;;2.22;1.63;;;;;;;20.86;40.46;102373.28;4174806;28;20021;-48
2021/06/06 00:31:03;;;;;;;2.45;1.73;;;;;;;20.84;40.15;102374.38;4166201;28;20120;-48
2021/06/06 00:33:04;;;;;;;3.15;2.00;;;;;;;20.80;40.37;102370.41;4167040;28;20112;-50
2021/06/06 00:35:07;;;;;;;4.72;2.50;;;;;;;20.77;40.53;102370.06;4163912;28;20468;-47
2021/06/06 00:37:07;;;;;;;2.85;2.60;;;;;;;20.79;40.56;102373.44;4164997;28;20154;-48
2021/06/06 00:39:08;;;;;;;3.22;2.10;;;;;;;20.75;40.66;102384.25;4166692;28;20138;-48
2021/06/06 00:41:09;;;;;;;3.08;2.03;;;;;;;20.80;40.64;102391.84;4162473;28;20032;-55
2021/06/06 00:43:10;;;;;;;4.00;2.90;;;;;;;20.88;40.59;102394.19;4164887;28;20016;-54
2021/06/06 00:45:13;;;;;;;3.25;2.10;;;;;;;20.67;40.97;102382.75;4175666;28;20041;-55
2021/06/06 00:47:14;;;;;;;4.05;2.75;;;;;;;20.72;41.07;102395.06;4167261;28;20099;-52
2021/06/06 00:49:15;;;;;;;4.47;2.50;;;;;;;20.73;40.98;102386.44;4166579;28;20595;-50
2021/06/06 00:51:28;;;;;;;3.10;2.58;;;;;;;20.72;40.60;102370.00;4162170;28;20053;-51
2021/06/06 00:53:40;;;;;;;4.00;2.47;;;;;;;20.77;40.76;102387.59;4165426;28;20029;-51
2021/06/06 00:55:41;;;;;;;3.05;2.35;;;;;;;20.67;41.03;102377.19;4169215;28;20029;-50
2021/06/06 00:57:42;;;;;;;6.40;3.08;;;;;;;20.78;40.72;102380.13;4167803;28;20121;-54
2021/06/06 00:59:50;;;;;;;5.20;3.05;;;;;;;20.75;40.95;102387.03;4171130;28;20112;-50
2021/06/06 01:01:51;;;;;;;5.47;2.92;;;;;;;20.78;40.70;102385.69;4168980;28;20032;-52
2021/06/06 01:03:54;;;;;;;5.22;3.15;;;;;;;20.74;41.16;102388.13;4164639;28;20044;-49
2021/06/06 01:06:04;;;;;;;7.78;2.80;;;;;;;20.71;41.29;102385.00;4173784;28;20521;-49
2021/06/06 01:08:06;;;;;;;4.90;2.67;;;;;;;20.75;41.34;102389.81;4171901;28;20037;-51
2021/06/06 01:10:07;;;;;;;7.35;3.03;;;;;;;20.76;41.48;102397.06;4164031;28;20982;-50
2021/06/06 01:12:29;;;;;;;6.53;3.00;;;;;;;20.77;41.20;102398.75;4170391;28;20105;-50
2021/06/06 01:14:38;;;;;;;10.05;2.97;;;;;;;20.75;41.35;102388.97;4165558;28;20045;-48
2021/06/06 01:16:46;;;;;;;8.68;3.30;;;;;;;20.61;41.68;102389.31;4172771;28;20022;-49
2021/06/06 01:18:50;;;;;;;4.35;2.90;;;;;;;20.67;41.73;102399.44;4164684;28;20022;-49
2021/06/06 01:21:03;;;;;;;5.78;2.65;;;;;;;20.79;41.48;102392.91;4157349;28;20029;-48
2021/06/06 01:23:24;;;;;;;7.13;3.60;;;;;;;20.59;41.78;102397.09;4161037;28;20025;-48
2021/06/06 01:25:40;;;;;;;4.07;2.58;;;;;;;20.73;41.53;102391.16;4164735;28;20045;-48
2021/06/06 01:27:56;;;;;;;8.80;3.05;;;;;;;20.64;42.13;102401.88;4166854;28;20148;-52
2021/06/06 01:30:05;;;;;;;9.90;3.28;;;;;;;20.67;41.93;102402.22;4166013;28;20040;-48
2021/06/06 01:32:15;;;;;;;6.68;3.40;;;;;;;20.71;41.64;102394.19;4166860;28;20112;-50
2021/06/06 01:34:19;;;;;;;8.57;3.20;;;;;;;20.63;41.57;102391.84;4159074;28;20041;-47
2021/06/06 01:36:31;;;;;;;5.85;3.47;;;;;;;20.63;42.04;102395.47;4162052;28;20479;-47
2021/06/06 01:38:57;;;;;;;6.35;2.88;;;;;;;20.67;41.74;102393.88;4164200;28;20116;-50
2021/06/06 01:41:01;;;;;;;6.45;3.50;;;;;;;20.64;41.80;102382.41;4158863;28;20092;-48
2021/06/06 01:43:07;;;;;;;6.00;3.25;;;;;;;20.76;41.64;102385.94;4166487;28;20467;-50
2021/06/06 01:45:15;;;;;;;6.05;3.28;;;;;;;20.60;41.61;102386.78;4168037;28;20488;-48
2021/06/06 01:47:19;;;;;;;6.22;3.50;;;;;;;20.65;41.52;102387.72;4166130;28;20455;-46
2021/06/06 01:49:22;;;;;;;6.53;3.53;;;;;;;20.56;41.91;102383.66;4171966;28;20040;-48
2021/06/06 01:51:29;;;;;;;5.60;3.45;;;;;;;20.41;42.16;102358.38;4172239;28;20408;-48
2021/06/06 01:53:31;;;;;;;8.25;3.20;;;;;;;20.71;41.73;102393.34;4168964;28;20053;-48
2021/06/06 01:55:34;;;;;;;5.90;3.35;;;;;;;20.63;41.94;102380.72;4162548;28;20029;-46
2021/06/06 01:57:35;;;;;;;4.43;2.95;;;;;;;20.57;41.76;102377.00;4168378;28;20941;-46
2021/06/06 01:59:42;;;;;;;5.50;3.03;;;;;;;20.60;41.57;102382.06;4173167;28;20039;-47
2021/06/06 02:01:43;;;;;;;4.32;3.22;;;;;;;20.70;41.18;102374.97;4167708;28;20025;-50
2021/06/06 02:03:48;;;;;;;4.47;3.25;;;;;;;20.59;41.88;102385.09;4171511;28;21085;-53
2021/06/06 02:05:50;;;;;;;4.95;2.80;;;;;;;20.60;41.88;102373.72;4163409;28;20025;-53
2021/06/06 02:07:52;;;;;;;3.90;2.90;;;;;;;20.70;41.29;102381.41;4169004;28;20037;-50
2021/06/06 02:10:09;;;;;;;6.15;3.47;;;;;;;20.62;41.47;102374.31;4168837;28;20172;-51
2021/06/06 02:12:09;;;;;;;8.18;3.17;;;;;;;20.50;41.64;102370.75;4165809;28;20104;-51
2021/06/06 02:14:18;;;;;;;5.50;3.20;;;;;;;20.58;41.71;102377.88;4170705;28;20060;-52
2021/06/06 02:16:25;;;;;;;6.82;3.30;;;;;;;20.46;41.60;102367.63;4165357;28;20075;-49
2021/06/06 02:18:27;;;;;;;5.75;3.72;;;;;;;20.59;41.39;102374.81;4168641;28;20442;-50
2021/06/06 02:20:35;;;;;;;4.82;3.17;;;;;;;20.53;41.68;102369.38;4172282;28;20120;-50
2021/06/06 02:22:36;;;;;;;5.85;3.22;;;;;;;20.43;41.46;102342.25;4163050;28;20029;-53
2021/06/06 02:24:38;;;;;;;4.72;2.63;;;;;;;20.58;41.78;102364.78;4167728;28;20394;-49
2021/06/06 02:26:50;;;;;;;4.82;3.40;;;;;;;20.58;41.29;102370.34;4167383;28;20044;-51
2021/06/06 02:29:00;;;;;;;4.40;3.30;;;;;;;20.59;41.33;102363.69;4164178;28;20036;-50
2021/06/06 02:31:12;;;;;;;4.27;2.87;;;;;;;20.56;41.29;102361.41;4170435;28;20033;-55
2021/06/06 02:33:24;;;;;;;3.70;2.85;;;;;;;20.53;41.62;102355.47;4169989;28;20085;-51
2021/06/06 02:35:36;;;;;;;2.50;2.22;;;;;;;20.42;41.77;102369.22;4168177;28;20033;-54
2021/06/06 02:37:46;;;;;;;8.30;3.40;;;;;;;20.42;41.51;102335.84;4171137;28;20048;-54
2021/06/06 02:39:51;;;;;;;3.07;2.80;;;;;;;20.51;41.69;102361.28;4164510;28;20036;-55
2021/06/06 02:41:57;;;;;;;4.57;2.75;;;;;;;20.51;41.72;102358.50;4167778;28;20447;-51
2021/06/06 02:44:00;;;;;;;3.95;2.20;;;;;;;20.44;41.84;102358.69;4176692;28;20036;-54
2021/06/06 02:46:03;;;;;;;4.97;3.63;;;;;;;20.61;41.37;102361.50;4165285;28;20044;-52
2021/06/06 02:48:09;;;;;;;3.83;2.92;;;;;;;20.48;41.48;102359.00;4166190;28;20033;-54
2021/06/06 02:50:17;;;;;;;2.30;2.10;;;;;;;20.60;41.37;102358.97;4164184;28;20029;-55
2021/06/06 02:52:38;;;;;;;4.45;2.60;;;;;;;20.53;41.54;102359.13;4170373;28;20025;-53
2021/06/06 02:54:46;;;;;;;3.72;2.78;;;;;;;20.51;41.49;102364.06;4174022;28;20149;-53
2021/06/06 02:56:53;;;;;;;4.88;2.17;;;;;;;20.54;41.32;102359.94;4168029;28;20455;-54
2021/06/06 02:58:58;;;;;;;3.55;2.78;;;;;;;20.53;41.46;102366.59;4161013;28;20036;-55
2021/06/06 03:01:06;;;;;;;2.83;2.53;;;;;;;20.41;41.66;102367.53;4166563;28;20079;-54
2021/06/06 03:03:30;;;;;;;3.40;2.58;;;;;;;20.53;41.09;102364.69;4174231;28;20037;-54
2021/06/06 03:05:31;;;;;;;2.35;2.15;;;;;;;20.49;41.32;102371.84;4170259;28;20132;-54
2021/06/06 03:07:35;;;;;;;6.38;3.20;;;;;;;20.45;41.52;102363.16;4168503;28;20459;-54
2021/06/06 03:09:36;;;;;;;3.35;2.70;;;;;;;20.48;41.10;102372.91;4174375;28;20116;-53
2021/06/06 03:11:41;;;;;;;2.55;2.30;;;;;;;20.36;41.22;102356.34;4166350;28;20432;-52
2021/06/06 03:13:53;;;;;;;2.50;2.30;;;;;;;20.36;41.74;102377.72;4173271;28;20025;-49
2021/06/06 03:15:56;;;;;;;2.78;2.28;;;;;;;20.38;41.55;102383.91;4162745;28;20053;-51
2021/06/06 03:17:57;;;;;;;3.08;2.20;;;;;;;20.47;41.25;102366.53;4164766;28;20028;-48
2021/06/06 03:20:02;;;;;;;3.00;2.67;;;;;;;20.41;41.32;102373.09;4166336;28;20036;-52
2021/06/06 03:22:05;;;;;;;3.28;2.15;;;;;;;20.40;41.01;102359.44;4163366;28;20021;-52
2021/06/06 03:24:38;;;;;;;4.07;2.15;;;;;;;20.44;41.29;102374.53;4168335;28;20044;-51
2021/06/06 03:26:41;;;;;;;3.22;2.80;;;;;;;20.42;41.50;102377.56;4162688;28;20099;-51
2021/06/06 03:28:43;;;;;;;3.63;2.47;;;;;;;20.43;41.44;102376.47;4166954;28;20095;-49
2021/06/06 03:30:47;;;;;;;4.10;2.60;;;;;;;20.31;41.15;102361.78;4177191;28;20135;-49
2021/06/06 03:32:49;;;;;;;3.15;2.05;;;;;;;20.43;41.42;102381.19;4164849;28;20104;-52
2021/06/06 03:34:50;;;;;;;3.20;2.35;;;;;;;20.44;41.05;102371.75;4170657;28;20408;-53
2021/06/06 03:36:51;;;;;;;2.55;2.35;;;;;;;20.36;41.61;102377.72;4170239;28;20022;-53
2021/06/06 03:38:52;;;;;;;3.03;2.50;;;;;;;20.37;41.26;102365.50;4168532;28;20449;-51
2021/06/06 03:40:53;;;;;;;3.17;2.65;;;;;;;20.47;41.11;102382.38;4167749;28;20031;-51
2021/06/06 03:42:54;;;;;;;4.22;2.20;;;;;;;20.37;41.60;102374.69;4164198;28;20547;-52
2021/06/06 03:44:54;;;;;;;2.08;1.90;;;;;;;20.37;41.29;102379.41;4166578;28;20219;-50
2021/06/06 03:46:55;;;;;;;2.63;2.42;;;;;;;20.47;41.08;102376.81;4176333;28;20124;-52
2021/06/06 03:48:56;;;;;;;3.42;2.22;;;;;;;20.51;40.97;102375.19;4168434;28;20025;-50
2021/06/06 03:50:56;;;;;;;2.83;2.45;;;;;;;20.39;41.15;102374.44;4160740;28;20612;-49
2021/06/06 03:52:57;;;;;;;2.40;2.20;;;;;;;20.38;41.04;102375.56;4171341;28;20510;-51
2021/06/06 03:54:57;;;;;;;2.28;1.80;;;;;;;20.37;41.15;102360.78;4167686;28;20426;-47
2021/06/06 03:56:58;;;;;;;2.65;2.30;;;;;;;20.23;41.17;102365.84;4164886;28;20173;-52
2021/06/06 03:58:58;;;;;;;3.92;2.22;;;;;;;20.15;41.28;102326.50;4159990;28;20141;-48
2021/06/06 04:00:59;;;;;;;2.75;2.45;;;;;;;20.37;41.22;102371.06;4166447;28;20486;-48
2021/06/06 04:03:00;;;;;;;1.98;1.88;;;;;;;20.24;41.54;102370.31;4169961;28;20059;-50
2021/06/06 04:05:01;;;;;;;2.50;2.30;;;;;;;20.33;41.50;102383.78;4166038;28;20812;-47
2021/06/06 04:07:02;;;;;;;2.50;1.98;;;;;;;20.36;41.18;102383.28;4173103;28;20025;-48
2021/06/06 04:09:04;;;;;;;3.55;2.42;;;;;;;20.15;41.58;102373.75;4173112;28;20032;-48
2021/06/06 04:11:06;;;;;;;2.40;1.70;;;;;;;20.26;41.43;102381.19;4164422;28;20742;-51
2021/06/06 04:13:07;;;;;;;3.22;2.08;;;;;;;20.18;41.58;102379.66;4165631;28;20017;-48
2021/06/06 04:15:08;;;;;;;2.83;1.70;;;;;;;20.30;41.13;102379.59;4163292;28;20029;-47
2021/06/06 04:17:09;;;;;;;1.95;1.60;;;;;;;20.20;41.29;102377.47;4167582;28;20714;-50
2021/06/06 04:19:09;;;;;;;1.63;1.52;;;;;;;20.17;41.54;102379.91;4167955;28;20086;-49
2021/06/06 04:21:22;;;;;;;2.08;1.70;;;;;;;20.21;41.37;102372.75;4165544;28;20080;-51
2021/06/06 04:23:23;;;;;;;3.72;2.42;;;;;;;20.21;41.46;102378.31;4166326;28;20048;-48
2021/06/06 04:25:24;;;;;;;3.63;2.67;;;;;;;20.24;41.35;102384.22;4165137;28;20150;-50
2021/06/06 04:27:25;;;;;;;2.65;1.50;;;;;;;20.23;41.17;102382.50;4169037;28;20443;-49
2021/06/06 04:29:25;;;;;;;1.67;1.50;;;;;;;20.25;41.09;102377.56;4172527;28;20036;-49
2021/06/06 04:31:26;;;;;;;2.05;1.60;;;;;;;20.27;41.22;102380.94;4167491;28;20037;-52
2021/06/06 04:33:27;;;;;;;1.55;1.45;;;;;;;20.28;41.00;102377.06;4169415;28;20029;-48
2021/06/06 04:35:27;;;;;;;2.08;1.83;;;;;;;20.17;41.09;102383.53;4164148;28;20041;-49
2021/06/06 04:37:28;;;;;;;1.60;1.50;;;;;;;20.13;41.63;102382.34;4164812;28;20048;-47
2021/06/06 04:39:28;;;;;;;1.55;1.45;;;;;;;20.20;41.02;102371.06;4169307;28;20033;-47
2021/06/06 04:41:29;;;;;;;2.58;1.90;;;;;;;20.18;41.56;102382.44;4171342;28;20029;-49
2021/06/06 04:43:29;;;;;;;2.03;1.80;;;;;;;20.25;40.78;102380.34;4165643;28;20037;-50
2021/06/06 04:45:30;;;;;;;1.90;1.80;;;;;;;20.22;41.03;102375.28;4172425;28;20080;-50
2021/06/06 04:47:31;;;;;;;1.83;1.73;;;;;;;20.16;41.33;102378.22;4165468;28;20021;-50
2021/06/06 04:49:31;;;;;;;2.03;1.58;;;;;;;20.31;41.04;102376.56;4169508;28;20040;-49
2021/06/06 04:51:32;;;;;;;2.55;1.60;;;;;;;20.23;41.18;102378.91;4173788;28;20087;-54
2021/06/06 04:53:32;;;;;;;1.90;1.70;;;;;;;20.22;41.25;102386.41;4163341;28;20033;-53
2021/06/06 04:55:33;;;;;;;2.10;1.70;;;;;;;20.15;41.45;102380.16;4167632;28;20423;-49
2021/06/06 04:57:34;;;;;;;2.55;2.10;;;;;;;20.25;41.31;102397.03;4173725;28;20373;-50
2021/06/06 04:59:36;;;;;;;3.08;1.85;;;;;;;20.17;41.21;102383.53;4164163;28;20032;-49
2021/06/06 05:01:37;;;;;;;2.35;1.52;;;;;;;20.15;41.28;102380.16;4163451;28;20033;-54
2021/06/06 05:03:38;;;;;;;2.30;1.58;;;;;;;20.10;41.52;102382.84;4162832;28;20041;-53
2021/06/06 05:05:39;;;;;;;2.10;2.00;;;;;;;20.16;41.36;102381.84;4169694;28;20438;-54
2021/06/06 05:07:39;;;;;;;2.20;1.60;;;;;;;20.24;41.01;102378.66;4161887;28;20025;-55
2021/06/06 05:09:40;;;;;;;1.52;1.42;;;;;;;20.17;41.26;102377.13;4167581;28;20102;-50
2021/06/06 05:11:40;;;;;;;3.15;1.70;;;;;;;20.02;41.63;102374.91;4163210;28;20198;-54
2021/06/06 05:13:41;;;;;;;1.90;1.75;;;;;;;20.07;41.31;102378.63;4167058;28;20025;-53
2021/06/06 05:15:42;;;;;;;1.90;1.50;;;;;;;20.16;41.29;102384.63;4167011;28;20049;-52
2021/06/06 05:17:42;;;;;;;2.22;1.77;;;;;;;20.15;41.24;102384.88;4145609;28;20030;-53
2021/06/06 05:19:42;;;;;;;1.40;1.25;;;;;;;20.07;41.18;102383.34;4161974;28;20056;-53
2021/06/06 05:21:43;;;;;;;1.48;1.38;;;;;;;20.19;41.04;102383.25;4165632;28;20036;-54
2021/06/06 05:23:43;;;;;;;1.90;1.67;;;;;;;20.11;41.61;102387.28;4165883;28;20128;-52
2021/06/06 05:25:44;;;;;;;2.20;1.50;;;;;;;20.06;41.51;102376.94;4169233;28;20029;-48
2021/06/06 05:27:45;;;;;;;1.95;1.85;;;;;;;20.07;41.58;102386.13;4172809;28;20036;-46
2021/06/06 05:29:45;;;;;;;2.00;1.55;;;;;;;20.09;41.43;102386.72;4169587;28;20068;-50
2021/06/06 05:31:46;;;;;;;1.80;1.65;;;;;;;20.08;41.40;102385.03;4170431;28;20029;-49
2021/06/06 05:33:47;;;;;;;3.35;1.50;;;;;;;20.18;41.02;102381.59;4165170;28;20042;-48
2021/06/06 05:35:48;;;;;;;1.85;1.42;;;;;;;20.06;41.52;102381.66;4171048;28;20052;-49
2021/06/06 05:37:48;;;;;;;2.45;1.48;;;;;;;20.09;41.58;102379.22;4172869;28;20025;-48
2021/06/06 05:39:49;;;;;;;2.25;1.58;;;;;;;20.13;41.37;102379.56;4172292;28;20087;-47
2021/06/06 05:41:49;;;;;;;1.65;1.23;;;;;;;20.07;41.73;102386.13;4169121;28;20029;-50
2021/06/06 05:43:50;;;;;;;1.67;1.33;;;;;;;20.07;41.65;102388.91;4165564;28;20044;-48
2021/06/06 05:45:50;;;;;;;2.08;1.45;;;;;;;19.97;41.98;102370.09;4168057;28;20045;-48
2021/06/06 05:47:52;;;;;;;2.08;1.55;;;;;;;20.00;42.12;102379.88;4171091;28;20028;-50
2021/06/06 05:49:52;;;;;;;3.55;1.85;;;;;;;19.95;41.70;102375.91;4164757;28;20053;-48
2021/06/06 05:51:53;;;;;;;1.90;1.15;;;;;;;20.09;41.61;102379.22;4168787;28;20056;-48
2021/06/06 05:53:53;;;;;;;2.70;1.40;;;;;;;20.07;41.75;102388.91;4166015;28;20029;-51
2021/06/06 05:55:55;;;;;;;2.20;2.00;;;;;;;20.05;41.90;102386.38;4164892;28;20131;-50
2021/06/06 05:57:55;;;;;;;2.13;1.58;;;;;;;20.10;41.78;102393.97;4170006;28;20118;-53
2021/06/06 05:59:56;;;;;;;1.20;1.10;;;;;;;20.06;41.98;102393.59;4173093;28;20068;-50
2021/06/06 06:01:57;;;;;;;3.95;1.63;;;;;;;20.02;41.71;102372.97;4165893;28;20026;-54
2021/06/06 06:03:57;;;;;;;3.70;1.50;;;;;;;20.08;41.85;102398.91;4171873;28;20037;-54
2021/06/06 06:05:59;;;;;;;1.83;1.50;;;;;;;20.15;41.49;102407.97;4176325;28;20034;-54
2021/06/06 06:08:14;;;;;;;1.75;1.60;;;;;;;20.12;41.82;102405.69;4168502;28;20409;-51
2021/06/06 06:10:23;;;;;;;1.70;1.55;;;;;;;20.12;42.19;102411.22;4170371;28;20029;-50
2021/06/06 06:12:23;;;;;;;1.30;1.20;;;;;;;20.11;41.97;102407.63;4166421;28;20040;-53
2021/06/06 06:14:24;;;;;;;1.80;1.35;;;;;;;20.15;41.93;102402.41;4156931;28;20056;-51
2021/06/06 06:16:28;;;;;;;2.35;1.48;;;;;;;20.13;41.91;102397.09;4165594;28;20041;-51
2021/06/06 06:18:30;;;;;;;2.08;1.27;;;;;;;20.11;42.01;102412.31;4170935;28;20080;-52
2021/06/06 06:20:30;;;;;;;2.47;1.60;;;;;;;20.12;42.22;102411.22;4169375;28;20053;-53
2021/06/06 06:22:31;;;;;;;3.38;1.50;;;;;;;20.12;42.13;102409.28;4158956;28;20095;-49
2021/06/06 06:24:31;;;;;;;1.33;1.20;;;;;;;20.15;42.19;102409.91;4167808;28;20048;-49
2021/06/06 06:26:33;;;;;;;1.38;1.23;;;;;;;20.15;42.08;102401.56;4173091;28;20049;-47
2021/06/06 06:28:34;;;;;;;1.60;1.50;;;;;;;20.17;42.07;102411.31;4167358;28;20040;-50
2021/06/06 06:30:36;;;;;;;2.25;1.30;;;;;;;20.18;41.84;102413.03;4167480;28;20380;-47
2021/06/06 06:32:37;;;;;;;1.83;1.33;;;;;;;20.19;42.10;102408.28;4163749;28;20033;-48
2021/06/06 06:34:37;;;;;;;1.50;1.40;;;;;;;20.20;41.95;102407.22;4166450;28;20094;-49
2021/06/06 06:36:38;;;;;;;2.38;1.45;;;;;;;20.21;41.90;102415.28;4164633;28;20037;-47
2021/06/06 06:38:38;;;;;;;2.58;1.88;;;;;;;20.20;41.93;102410.00;4171418;28;20118;-47
2021/06/06 06:40:40;;;;;;;2.80;1.55;;;;;;;20.28;41.65;102412.34;4171100;28;20029;-47
2021/06/06 06:42:41;;;;;;;1.60;1.30;;;;;;;20.23;41.99;102415.03;4168574;28;20040;-47
2021/06/06 06:44:42;;;;;;;2.28;1.55;;;;;;;20.19;41.92;102413.84;4167020;28;20529;-48
2021/06/06 06:46:42;;;;;;;1.65;1.55;;;;;;;20.25;41.93;102418.41;4167720;28;20044;-48
2021/06/06 06:48:43;;;;;;;3.53;1.42;;;;;;;20.24;41.82;102417.56;4166596;28;20037;-49
2021/06/06 06:50:45;;;;;;;1.60;1.50;;;;;;;20.23;41.94;102421.44;4169445;28;20487;-52
2021/06/06 06:52:46;;;;;;;1.70;1.23;;;;;;;20.26;41.96;102415.38;4168316;28;20045;-52
2021/06/06 06:54:46;;;;;;;1.75;1.50;;;;;;;20.21;41.85;102411.69;4165303;28;20036;-50
2021/06/06 06:56:47;;;;;;;2.00;1.33;;;;;;;20.28;41.75;102429.91;4167457;28;20033;-48
2021/06/06 06:58:47;;;;;;;2.45;1.10;;;;;;;20.26;41.61;102420.09;4164688;28;20060;-49
2021/06/06 07:00:52;;;;;;;2.05;1.30;;;;;;;20.25;41.79;102408.16;4168690;28;20476;-50
2021/06/06 07:02:52;;;;;;;2.80;1.23;;;;;;;20.24;41.81;102425.91;4171795;28;20056;-47
2021/06/06 07:04:53;;;;;;;1.73;1.60;;;;;;;20.30;41.77;102421.31;4169231;28;20100;-48
2021/06/06 07:06:54;;;;;;;2.22;1.40;;;;;;;20.36;41.65;102419.44;4169246;28;20043;-48
2021/06/06 07:08:55;;;;;;;1.27;1.17;;;;;;;20.29;41.81;102414.03;4165755;28;20498;-48
2021/06/06 07:10:56;;;;;;;2.10;1.48;;;;;;;20.36;41.82;102434.22;4166448;28;20037;-52
2021/06/06 07:12:57;;;;;;;2.50;1.50;;;;;;;20.37;41.58;102426.69;4172342;28;20056;-51
2021/06/06 07:14:57;;;;;;;1.55;1.13;;;;;;;20.37;41.57;102435.88;4153390;28;20080;-49
2021/06/06 07:16:58;;;;;;;4.70;1.45;;;;;;;20.39;41.76;102430.94;4161975;28;20063;-49
2021/06/06 07:18:58;;;;;;;2.35;1.40;;;;;;;20.42;41.22;102432.34;4168257;28;20268;-51
2021/06/06 07:21:02;;;;;;;1.38;1.27;;;;;;;20.44;41.12;102432.94;4163873;28;20044;-52
2021/06/06 07:23:05;;;;;;;4.10;1.80;;;;;;;20.41;41.43;102425.94;4163479;28;20033;-52
2021/06/06 07:25:09;;;;;;;1.52;1.30;;;;;;;20.41;41.74;102427.91;4162711;28;20333;-50
2021/06/06 07:27:09;;;;;;;1.75;1.58;;;;;;;20.44;41.54;102421.81;4168805;28;20048;-49
2021/06/06 07:29:13;;;;;;;2.33;1.48;;;;;;;20.44;41.58;102430.16;4170189;28;20614;-55
2021/06/06 07:31:15;;;;;;;3.70;1.58;;;;;;;20.45;41.20;102429.06;4168429;28;20078;-54
2021/06/06 07:33:20;;;;;;;1.45;1.05;;;;;;;20.45;41.53;102435.47;4164198;28;21710;-53
2021/06/06 07:35:23;;;;;;;2.17;1.30;;;;;;;20.49;41.28;102436.66;4166287;28;20490;-55
2021/06/06 07:37:24;;;;;;;2.20;1.50;;;;;;;20.55;41.16;102431.19;4169211;28;20064;-53
2021/06/06 07:39:24;;;;;;;1.67;1.20;;;;;;;20.49;41.13;102419.97;4165263;28;20030;-50
2021/06/06 07:41:25;;;;;;;1.88;1.45;;;;;;;20.52;41.29;102429.75;4169938;28;20045;-48
2021/06/06 07:43:26;;;;;;;1.00;0.90;;;;;;;20.53;41.36;102436.16;4160901;28;20037;-48
2021/06/06 07:45:28;;;;;;;2.55;0.85;;;;;;;20.58;41.24;102437.13;4161633;28;20056;-53
2021/06/06 07:47:29;;;;;;;1.17;0.98;;;;;;;20.59;41.12;102440.72;4163121;28;20086;-47
2021/06/06 07:49:29;;;;;;;1.92;0.95;;;;;;;20.60;40.97;102434.91;4166652;28;20045;-47
2021/06/06 07:51:30;;;;;;;1.42;1.20;;;;;;;20.60;41.29;102443.25;4171626;28;20044;-50
2021/06/06 07:53:30;;;;;;;1.60;1.15;;;;;;;20.61;40.93;102444.13;4163201;28;20116;-50
2021/06/06 07:55:31;;;;;;;1.25;1.15;;;;;;;20.57;40.86;102429.00;4161452;28;20038;-49
2021/06/06 07:57:32;;;;;;;2.22;1.10;;;;;;;20.64;40.77;102443.63;4158173;28;20026;-48
2021/06/06 07:59:36;;;;;;;1.35;1.25;;;;;;;20.61;41.15;102435.78;4149823;28;20037;-48
2021/06/06 08:01:37;;;;;;;1.77;1.20;;;;;;;20.72;40.80;102447.94;4171094;28;20040;-48
2021/06/06 08:03:38;;;;;;;1.88;1.20;;;;;;;20.69;41.03;102446.47;4162168;28;20072;-49
2021/06/06 08:05:40;;;;;;;2.13;1.27;;;;;;;20.69;40.80;102446.47;4147647;28;20044;-48
2021/06/06 08:07:41;;;;;;;1.48;1.38;;;;;;;20.66;41.08;102438.63;4160555;28;20117;-50
2021/06/06 08:09:41;;;;;;;2.72;1.40;;;;;;;20.72;41.11;102454.31;4162914;28;20072;-50
2021/06/06 08:11:42;;;;;;;2.40;1.42;;;;;;;20.72;40.80;102450.72;4164577;28;20112;-48
2021/06/06 08:13:42;;;;;;;1.38;0.80;;;;;;;20.78;40.73;102444.97;4173666;28;20032;-50
2021/06/06 08:15:43;;;;;;;2.08;1.08;;;;;;;20.78;40.75;102441.34;4168338;28;20029;-50
2021/06/06 08:17:43;;;;;;;1.45;1.35;;;;;;;20.80;40.49;102441.94;4163367;28;20455;-49
2021/06/06 08:19:44;;;;;;;1.50;1.40;;;;;;;20.79;40.76;102443.88;4168399;28;20033;-49
2021/06/06 08:21:46;;;;;;;1.25;1.15;;;;;;;20.80;40.91;102448.31;4164603;28;20335;-48
2021/06/06 08:23:48;;;;;;;2.55;1.23;;;;;;;20.80;40.75;102441.94;4166816;28;20029;-50
2021/06/06 08:25:49;;;;;;;1.63;1.30;;;;;;;20.84;40.50;102448.69;4167153;28;20033;-48
2021/06/06 08:27:50;;;;;;;1.63;1.30;;;;;;;20.85;40.46;102453.13;4159432;28;20040;-51
2021/06/06 08:29:51;;;;;;;1.25;1.08;;;;;;;20.81;40.72;102443.63;4159030;28;20037;-49
2021/06/06 08:31:52;;;;;;;2.45;0.98;;;;;;;20.84;40.59;102449.50;4169335;28;20078;-50
2021/06/06 08:33:53;;;;;;;1.80;1.30;;;;;;;20.88;40.78;102449.00;4163139;28;20042;-49
2021/06/06 08:35:56;;;;;;;1.30;1.23;;;;;;;20.84;40.56;102443.94;4169708;28;20072;-52
2021/06/06 08:37:56;;;;;;;1.85;1.00;;;;;;;20.87;40.36;102452.88;4162427;28;20029;-50
2021/06/06 08:39:57;;;;;;;1.48;1.20;;;;;;;20.88;40.55;102444.28;4165502;28;20033;-50
2021/06/06 08:42:08;;;;;;;1.30;1.05;;;;;;;20.86;40.58;102440.91;4167611;28;20083;-48
2021/06/06 08:44:21;;;;;;;1.90;0.80;;;;;;;20.90;40.73;102450.44;4163148;28;20059;-48
2021/06/06 08:46:23;;;;;;;1.35;1.25;;;;;;;20.87;40.60;102448.19;4167152;28;20037;-47
2021/06/06 08:48:27;;;;;;;1.23;0.90;;;;;;;20.94;40.70;102442.41;4167227;28;20033;-47
2021/06/06 08:50:34;;;;;;;1.80;1.27;;;;;;;20.97;40.69;102448.31;4162605;28;20037;-47
2021/06/06 08:52:53;;;;;;;1.23;1.10;;;;;;;21.01;40.16;102449.50;4163895;28;20055;-47
2021/06/06 08:55:18;;;;;;;1.20;0.95;;;;;;;20.99;40.41;102442.50;4162618;28;20030;-49
2021/06/06 08:57:27;;;;;;;3.85;1.20;;;;;;;21.02;40.25;102445.63;4169954;28;20491;-48
2021/06/06 08:59:38;;;;;;;1.05;1.00;;;;;;;21.00;40.84;102445.03;4166387;28;20036;-48
2021/06/06 09:01:49;;;;;;;2.05;1.17;;;;;;;21.03;40.25;102444.50;4161981;28;20029;-48
2021/06/06 09:03:53;;;;;;;1.23;0.90;;;;;;;21.04;40.29;102453.72;4161149;28;20195;-47
2021/06/06 09:06:20;;;;;;;0.95;0.95;;;;;;;21.01;40.51;102446.72;4166468;28;20466;-48
2021/06/06 09:08:25;;;;;;;1.00;0.90;;;;;;;21.09;40.21;102450.19;4161713;28;20025;-50
2021/06/06 09:10:48;;;;;;;1.55;1.15;;;;;;;21.13;40.40;102454.13;4168159;28;20056;-49
2021/06/06 09:12:49;;;;;;;1.75;1.10;;;;;;;21.14;40.15;102450.25;4166864;28;20056;-48
2021/06/06 09:14:53;;;;;;;1.17;1.08;;;;;;;21.12;39.95;102449.66;4165378;28;20037;-47
2021/06/06 09:17:02;;;;;;;1.10;1.00;;;;;;;21.15;40.07;102450.00;4166541;28;20041;-47
2021/06/06 09:19:08;;;;;;;1.20;0.98;;;;;;;21.11;39.90;102445.19;4171498;28;20037;-49
2021/06/06 09:21:16;;;;;;;1.63;1.45;;;;;;;21.27;39.94;102452.69;4163710;28;20037;-49
2021/06/06 09:23:19;;;;;;;0.95;0.93;;;;;;;21.31;39.81;102459.44;4163982;28;20075;-49
2021/06/06 09:25:29;;;;;;;2.53;1.00;;;;;;;21.17;40.20;102458.91;4162931;28;20391;-50
2021/06/06 09:27:29;;;;;;;6.50;1.63;;;;;;;21.31;39.85;102466.97;4164903;28;20525;-49
2021/06/06 09:29:31;;;;;;;3.22;1.10;;;;;;;21.37;39.82;102463.16;4166365;28;20526;-48
2021/06/06 09:31:32;;;;;;;1.92;1.17;;;;;;;21.30;39.82;102466.13;4164976;28;20037;-49
2021/06/06 09:33:41;;;;;;;1.23;1.13;;;;;;;21.35;39.99;102466.19;4164308;28;20034;-49